Utica, NY

9:49 AM EST on December 29, 2014 (GMT -0500)
South Utica NY | Change Station
CLOSE
Current Station
Personal Weather Station
Location: Utica, NY
Elevation: 633 ft
Nearby Weather Stations

Elev 633 ft 43.08 °N, 75.26 °W | Updated 1 minute ago

Overcast
Overcast
30.9 °F
Feels Like 31 °F
N
2.0
Wind Variable Wind from South
Gusts 4.0 mph

Today
High -- | Low -- °F
--% Chance of Precip.
Yesterday
High -- | Low -- °F
Precip. -- in
7:32 AM 4:34 PM
First Quarter, 59% visible
Pressure 30.19 in
Visibility 10.0 miles
Clouds Overcast 4500 ft
Windchill 31 °F
Dew Point 27 °F
Humidity 84%
Rainfall 0.00 in
Snow Depth Not available.
UV 0 out of 12
Pollen .10 out of 12
Air Quality Not available.
Flu Activity Not available.
METAR KRME 291353Z 29008KT 10SM OVC045 M01/M05 A3018 RMK AO2 SLP224 T10061050

More Conditions Fewer Conditions

Pressure 30.19 in
Visibility 10.0 miles
Clouds Overcast 4500 ft
Windchill 31 °F
Dew Point 27 °F
Humidity 84%
Rainfall 0.00 in
Snow Depth Not available.
UV 0 out of 12
Pollen .10 out of 12
Air Quality Not available.
Flu Activity Not available.
METAR KRME 291353Z 29008KT 10SM OVC045 M01/M05 A3018 RMK AO2 SLP224 T10061050

More Conditions Fewer Conditions

10-Day Weather Forecast

Almanac

Astronomy

Dec. 29, 2014 Rise Set
Actual Time
Civil Twilight
Nautical Twilight
Astronomical Twilight
Moon
Length of Visible Light
Length of Day
Tomorrow will be .
, % of the Moon is Illuminated

Today's Extremes

State Highs State Lows

Community

WunderPhotos

Upload Photos

1,781,591 photos uploaded!

WunderBlogs® & News

Nearby

Air Quality

  Air Quality AQ Index Pollutant
Not available.

Snow Depth

Station Depth Elevation

Earthquake Activity

City Distance Mag. Time & Date
Minimum magnitude displayed is 2.5.

Coastal Water Temperatures

Place Temperature

Nearby Weather Stations